Time;durP1;ratioP1;P1;durP2;ratioP2;P2;SDS_P1;SDS_P2;PMS_P1;PMS_P2;Temp;Humidity;BMP_temperature;BMP_pressure;BME280_temperature;BME280_humidity;BME280_pressure;Samples;Min_cycle;Max_cycle;Signal;HPM_P1;HPM_P2
2023/06/05 00:01:40;;;;;;;7.45;4.35;;;11.30;99.90;;;;;;5016611;28;20564;-69
2023/06/05 00:04:05;;;;;;;7.72;4.18;;;11.30;99.90;;;;;;5020438;28;20033;-69
2023/06/05 00:06:31;;;;;;;9.45;4.13;;;11.30;99.90;;;;;;5017382;28;20048;-69
2023/06/05 00:08:58;;;;;;;6.95;3.78;;;11.30;99.90;;;;;;5022511;28;20529;-69
2023/06/05 00:11:23;;;;;;;7.90;4.72;;;11.30;99.90;;;;;;5014822;28;20056;-69
2023/06/05 00:13:49;;;;;;;10.70;4.97;;;11.30;99.90;;;;;;5015173;28;20422;-69
2023/06/05 00:16:16;;;;;;;8.75;4.70;;;11.30;99.90;;;;;;5019651;28;20091;-69
2023/06/05 00:18:45;;;;;;;9.65;4.70;;;11.30;99.90;;;;;;5000458;28;20144;-68
2023/06/05 00:21:13;;;;;;;7.95;4.18;;;11.30;99.90;;;;;;5021424;28;20549;-69
2023/06/05 00:23:38;;;;;;;9.45;4.45;;;11.30;99.90;;;;;;5020165;28;20037;-69
2023/06/05 00:26:04;;;;;;;8.07;4.88;;;11.30;99.90;;;;;;5016622;28;20050;-69
2023/06/05 00:28:30;;;;;;;11.05;4.88;;;11.40;99.90;;;;;;5014034;28;20490;-69
2023/06/05 00:30:55;;;;;;;7.22;4.22;;;11.30;99.90;;;;;;5019173;28;20038;-69
2023/06/05 00:33:21;;;;;;;7.65;4.22;;;11.30;99.90;;;;;;5016236;28;20042;-69
2023/06/05 00:35:47;;;;;;;7.30;4.68;;;11.30;99.90;;;;;;5018945;28;20073;-70
2023/06/05 00:38:12;;;;;;;8.48;5.18;;;11.40;99.90;;;;;;5016843;28;20605;-69
2023/06/05 00:40:38;;;;;;;10.25;5.22;;;11.30;99.90;;;;;;5017455;28;20452;-69
2023/06/05 00:43:05;;;;;;;10.07;5.13;;;11.30;99.90;;;;;;5011432;28;20053;-69
2023/06/05 00:45:31;;;;;;;9.25;5.07;;;11.30;99.90;;;;;;5002908;28;20128;-69
2023/06/05 00:47:58;;;;;;;9.02;4.85;;;11.40;99.90;;;;;;5019328;28;20045;-69
2023/06/05 00:50:25;;;;;;;11.60;5.18;;;11.30;99.90;;;;;;5013996;28;20042;-69
2023/06/05 00:52:51;;;;;;;10.27;5.78;;;11.60;99.90;;;;;;5014333;28;20168;-69
2023/06/05 00:55:18;;;;;;;8.75;5.50;;;11.40;99.90;;;;;;5002756;28;20046;-69
2023/06/05 00:57:44;;;;;;;8.00;4.93;;;11.40;99.90;;;;;;5015861;28;20510;-69
2023/06/05 01:00:14;;;;;;;8.20;5.22;;;11.40;99.90;;;;;;5017429;28;20506;-69
2023/06/05 01:02:40;;;;;;;8.35;5.30;;;11.40;99.90;;;;;;5012733;28;20084;-69
2023/06/05 01:05:07;;;;;;;14.48;5.53;;;11.40;99.90;;;;;;5022471;28;20494;-70
2023/06/05 01:07:34;;;;;;;12.68;5.93;;;11.40;99.90;;;;;;5022235;28;20344;-69
2023/06/05 01:10:04;;;;;;;9.88;5.25;;;11.40;99.90;;;;;;5021472;28;20038;-69
2023/06/05 01:12:52;;;;;;;8.83;5.23;;;11.40;99.90;;;;;;5005470;28;20127;-69
2023/06/05 01:15:18;;;;;;;9.27;5.65;;;11.40;99.90;;;;;;5018095;28;20041;-69
2023/06/05 01:17:48;;;;;;;10.52;5.72;;;11.40;99.90;;;;;;5004715;28;20074;-69
2023/06/05 01:20:13;;;;;;;8.20;5.30;;;11.60;99.90;;;;;;5020506;28;20049;-69
2023/06/05 01:22:39;;;;;;;10.18;6.13;;;11.40;99.90;;;;;;5020150;28;20041;-70
2023/06/05 01:25:07;;;;;;;8.82;5.07;;;11.40;99.90;;;;;;5020957;28;20045;-69
2023/06/05 01:27:54;;;;;;;12.75;6.35;;;11.50;99.90;;;;;;5019315;28;20505;-69
2023/06/05 01:30:29;;;;;;;8.43;5.57;;;11.50;99.90;;;;;;5007078;28;20042;-69
2023/06/05 01:33:02;;;;;;;10.35;6.00;;;11.50;99.90;;;;;;5014188;28;20107;-69
2023/06/05 01:35:32;;;;;;;8.77;5.50;;;11.40;99.90;;;;;;4998498;28;20125;-69
2023/06/05 01:38:05;;;;;;;10.13;5.85;;;11.40;99.90;;;;;;5014959;28;20050;-69
2023/06/05 01:40:32;;;;;;;13.02;5.82;;;11.40;99.90;;;;;;5019549;28;20513;-74
2023/06/05 01:43:01;;;;;;;9.73;5.70;;;11.40;99.90;;;;;;5017089;28;20573;-74
2023/06/05 01:45:27;;;;;;;8.52;5.47;;;11.40;99.90;;;;;;5000403;28;20042;-74
2023/06/05 01:47:54;;;;;;;12.85;5.85;;;11.40;99.90;;;;;;5018316;28;20049;-74
2023/06/05 01:50:20;;;;;;;10.00;6.32;;;11.50;99.90;;;;;;5019175;28;20123;-74
2023/06/05 01:52:47;;;;;;;10.02;6.35;;;11.40;99.90;;;;;;5021961;28;20490;-73
2023/06/05 01:55:23;;;;;;;9.93;6.38;;;11.50;99.90;;;;;;5019816;28;20041;-69
2023/06/05 01:57:50;;;;;;;10.45;5.82;;;11.40;99.90;;;;;;5033894;28;20064;-69
2023/06/05 02:00:17;;;;;;;10.85;6.28;;;11.40;99.90;;;;;;5019577;28;20094;-69
2023/06/05 02:02:45;;;;;;;11.95;6.78;;;11.40;99.90;;;;;;5013176;28;20057;-69
2023/06/05 02:05:12;;;;;;;9.70;6.43;;;11.40;99.90;;;;;;5018548;28;20040;-69
2023/06/05 02:07:47;;;;;;;12.57;6.05;;;11.40;99.90;;;;;;5014270;28;20064;-69
2023/06/05 02:10:13;;;;;;;11.13;6.20;;;11.40;99.90;;;;;;5006235;28;20128;-69
2023/06/05 02:12:41;;;;;;;10.27;6.50;;;11.40;99.90;;;;;;5018206;28;20501;-70
2023/06/05 02:15:08;;;;;;;11.20;6.68;;;11.40;99.90;;;;;;5001125;28;20753;-69
2023/06/05 02:17:34;;;;;;;11.60;6.75;;;11.40;99.90;;;;;;5022123;28;20038;-69
2023/06/05 02:20:01;;;;;;;11.30;7.05;;;11.40;99.90;;;;;;5017408;28;20099;-69
2023/06/05 02:22:26;;;;;;;12.10;6.55;;;11.40;99.90;;;;;;5018924;28;20081;-69
2023/06/05 02:24:53;;;;;;;11.48;7.22;;;11.30;99.90;;;;;;5020338;28;20085;-69
2023/06/05 02:27:19;;;;;;;14.43;7.72;;;11.40;99.90;;;;;;5016407;28;20514;-69
2023/06/05 02:29:44;;;;;;;10.07;6.88;;;11.40;99.90;;;;;;5021077;28;20068;-69
2023/06/05 02:32:11;;;;;;;11.80;6.85;;;11.40;99.90;;;;;;5013688;28;20257;-69
2023/06/05 02:34:37;;;;;;;11.38;7.13;;;11.40;99.90;;;;;;5020343;28;20095;-69
2023/06/05 02:37:03;;;;;;;9.90;6.70;;;11.40;99.90;;;;;;5017234;28;20461;-69
2023/06/05 02:39:31;;;;;;;9.43;6.35;;;11.40;99.90;;;;;;5019064;28;20033;-69
2023/06/05 02:41:57;;;;;;;9.77;6.30;;;11.30;99.90;;;;;;5014202;28;20042;-69
2023/06/05 02:44:23;;;;;;;10.43;6.35;;;11.40;99.90;;;;;;5001858;28;20029;-69
2023/06/05 02:46:48;;;;;;;10.10;6.50;;;11.40;99.90;;;;;;5021848;28;20053;-69
2023/06/05 02:49:14;;;;;;;11.27;6.28;;;11.40;99.90;;;;;;5006478;28;20491;-69
2023/06/05 02:51:40;;;;;;;10.20;6.57;;;11.30;99.90;;;;;;5017125;28;20041;-69
2023/06/05 02:54:06;;;;;;;11.48;5.78;;;11.40;99.90;;;;;;5018802;28;20041;-69
2023/06/05 02:56:32;;;;;;;12.40;6.35;;;11.40;99.90;;;;;;5004758;28;20828;-69
2023/06/05 02:58:58;;;;;;;12.70;6.85;;;11.40;99.90;;;;;;5017920;28;20693;-69
2023/06/05 03:01:25;;;;;;;9.27;5.75;;;11.40;99.90;;;;;;5022019;28;20079;-69
2023/06/05 03:03:52;;;;;;;10.52;6.13;;;11.40;99.90;;;;;;4999835;28;20045;-69
2023/06/05 03:06:18;;;;;;;9.57;5.68;;;11.40;99.90;;;;;;5021331;28;20064;-69
2023/06/05 03:08:44;;;;;;;11.50;6.22;;;11.40;99.90;;;;;;5001620;28;20118;-69
2023/06/05 03:11:10;;;;;;;9.60;6.40;;;11.40;99.90;;;;;;5018777;28;20567;-69
2023/06/05 03:13:36;;;;;;;9.98;5.88;;;11.40;99.90;;;;;;5025395;28;20128;-69
2023/06/05 03:16:02;;;;;;;11.45;6.45;;;11.30;99.90;;;;;;5016036;28;20065;-69
2023/06/05 03:18:28;;;;;;;10.20;6.07;;;11.40;99.90;;;;;;5021305;28;20493;-69
2023/06/05 03:20:55;;;;;;;8.15;5.18;;;11.40;99.90;;;;;;5017356;28;20046;-69
2023/06/05 03:23:29;;;;;;;10.30;5.53;;;11.40;99.90;;;;;;5018335;28;20121;-69
2023/06/05 03:25:56;;;;;;;8.13;5.25;;;11.40;99.90;;;;;;5019985;28;20065;-69
2023/06/05 03:28:23;;;;;;;8.70;5.10;;;11.40;99.90;;;;;;5019500;28;20045;-69
2023/06/05 03:30:49;;;;;;;9.57;5.20;;;11.60;99.90;;;;;;5017669;28;20116;-69
2023/06/05 03:33:17;;;;;;;9.45;5.00;;;11.40;99.90;;;;;;5015109;28;20044;-69
2023/06/05 03:35:45;;;;;;;8.88;4.78;;;11.40;99.90;;;;;;5016730;28;20111;-69
2023/06/05 03:38:12;;;;;;;9.05;4.32;;;11.40;99.90;;;;;;5012489;28;20073;-69
2023/06/05 03:40:40;;;;;;;8.65;4.70;;;11.40;99.90;;;;;;5019445;28;20041;-69
2023/06/05 03:43:06;;;;;;;11.75;4.38;;;11.40;99.90;;;;;;5015173;28;20050;-69
2023/06/05 03:45:33;;;;;;;7.93;4.60;;;11.40;99.90;;;;;;5015500;28;20076;-69
2023/06/05 03:48:02;;;;;;;9.02;4.30;;;11.40;99.90;;;;;;5014411;28;20124;-70
2023/06/05 03:50:28;;;;;;;8.75;4.20;;;11.40;99.90;;;;;;5016063;28;20037;-69
2023/06/05 03:53:02;;;;;;;8.20;4.68;;;11.40;99.90;;;;;;5021250;28;20533;-69
2023/06/05 03:55:41;;;;;;;10.25;4.82;;;11.40;99.90;;;;;;5022509;28;20041;-69
2023/06/05 03:58:14;;;;;;;10.18;4.80;;;11.40;99.90;;;;;;5017301;28;20116;-69
2023/06/05 04:00:46;;;;;;;6.70;3.88;;;11.40;99.90;;;;;;5017840;28;20144;-69
2023/06/05 04:03:12;;;;;;;;;;;11.40;99.90;;;;;;5015704;28;20044;-69
2023/06/05 04:05:39;;;;;;;6.95;3.97;;;11.40;99.90;;;;;;5015786;28;19925;-69
2023/06/05 04:08:09;;;;;;;9.50;4.25;;;11.40;99.90;;;;;;5018924;28;20073;-70
2023/06/05 04:10:35;;;;;;;7.55;3.40;;;11.40;99.90;;;;;;5018802;28;20037;-69
2023/06/05 04:13:02;;;;;;;4.90;2.70;;;11.40;99.90;;;;;;5014329;28;20042;-69
2023/06/05 04:15:28;;;;;;;7.20;3.15;;;11.40;99.90;;;;;;5014789;28;20077;-69
2023/06/05 04:17:54;;;;;;;5.90;2.92;;;11.40;99.90;;;;;;5018101;28;20874;-69
2023/06/05 04:20:20;;;;;;;6.63;2.90;;;11.40;99.90;;;;;;5013059;28;20147;-69
2023/06/05 04:22:46;;;;;;;6.20;3.33;;;11.40;99.90;;;;;;5019549;28;20049;-70
2023/06/05 04:25:12;;;;;;;6.68;3.20;;;11.50;99.90;;;;;;5015558;28;20053;-69
2023/06/05 04:27:39;;;;;;;6.13;3.03;;;11.40;99.90;;;;;;5017150;28;20155;-69
2023/06/05 04:30:09;;;;;;;8.68;3.70;;;11.50;99.90;;;;;;4998418;28;20792;-69
2023/06/05 04:32:38;;;;;;;6.28;2.95;;;11.50;99.90;;;;;;5017941;28;20167;-69
2023/06/05 04:35:08;;;;;;;7.97;3.47;;;11.50;99.90;;;;;;5018074;28;20041;-69
2023/06/05 04:37:37;;;;;;;7.45;3.30;;;11.50;99.90;;;;;;5018144;28;20048;-69
2023/06/05 04:40:09;;;;;;;6.38;3.17;;;11.50;99.90;;;;;;5014159;28;20049;-69
2023/06/05 04:42:36;;;;;;;7.15;3.28;;;11.50;99.90;;;;;;5001722;28;20550;-69
2023/06/05 04:45:05;;;;;;;6.38;3.47;;;11.60;99.90;;;;;;4998654;28;20134;-69
2023/06/05 04:47:32;;;;;;;7.80;3.17;;;11.60;99.90;;;;;;5023019;28;20042;-69
2023/06/05 04:50:05;;;;;;;6.50;3.15;;;11.60;99.90;;;;;;5004483;28;20045;-69
2023/06/05 04:52:35;;;;;;;6.93;2.90;;;11.60;99.90;;;;;;5016285;28;20038;-69
2023/06/05 04:55:01;;;;;;;5.32;2.90;;;11.60;99.90;;;;;;5017468;28;20090;-69
2023/06/05 04:57:28;;;;;;;11.00;3.00;;;11.60;99.90;;;;;;4997183;28;20096;-69
2023/06/05 04:59:54;;;;;;;5.65;3.00;;;11.60;99.90;;;;;;5014899;28;20060;-69
2023/06/05 05:02:20;;;;;;;6.35;2.42;;;11.70;99.90;;;;;;5016360;28;20065;-70
2023/06/05 05:04:46;;;;;;;5.63;2.83;;;11.60;99.90;;;;;;5016393;28;20050;-70
2023/06/05 05:07:16;;;;;;;5.57;2.33;;;11.70;99.90;;;;;;5019397;28;20069;-69
2023/06/05 05:09:42;;;;;;;5.15;2.60;;;11.70;99.90;;;;;;5022322;28;20077;-69
2023/06/05 05:12:09;;;;;;;6.35;2.80;;;11.70;99.90;;;;;;5016616;28;20061;-70
2023/06/05 05:14:35;;;;;;;7.72;2.97;;;11.70;99.90;;;;;;5018833;28;20425;-70
2023/06/05 05:17:02;;;;;;;7.05;2.60;;;11.70;99.90;;;;;;5015483;28;20508;-69
2023/06/05 05:19:28;;;;;;;6.78;2.60;;;11.70;99.90;;;;;;5014184;28;20387;-69
2023/06/05 05:21:54;;;;;;;5.47;2.53;;;11.90;99.90;;;;;;5009299;28;20473;-69
2023/06/05 05:24:20;;;;;;;5.00;2.60;;;11.70;99.90;;;;;;4993849;28;20616;-69
2023/06/05 05:26:46;;;;;;;5.07;2.70;;;11.80;99.90;;;;;;5010752;28;20125;-69
2023/06/05 05:29:12;;;;;;;4.95;2.50;;;11.80;99.90;;;;;;5014709;28;20052;-70
2023/06/05 05:31:37;;;;;;;6.55;2.30;;;11.80;99.90;;;;;;5000576;28;20117;-69
2023/06/05 05:34:04;;;;;;;5.05;2.22;;;11.80;99.90;;;;;;5013102;28;20052;-69
2023/06/05 05:36:29;;;;;;;5.38;2.28;;;11.80;99.90;;;;;;5026839;28;20045;-69
2023/06/05 05:38:55;;;;;;;4.40;1.92;;;11.80;99.90;;;;;;5018421;28;20057;-69
2023/06/05 05:41:21;;;;;;;5.60;1.92;;;11.80;99.90;;;;;;5011068;28;20095;-70
2023/06/05 05:43:47;;;;;;;4.00;1.90;;;11.90;99.90;;;;;;5006014;28;20077;-69
2023/06/05 05:46:13;;;;;;;3.95;1.58;;;11.90;99.90;;;;;;5005786;28;20141;-69
2023/06/05 05:48:39;;;;;;;7.03;2.35;;;11.90;99.90;;;;;;5007428;28;20442;-69
2023/06/05 05:51:06;;;;;;;5.68;2.00;;;11.90;99.90;;;;;;5007132;28;20049;-69
2023/06/05 05:53:32;;;;;;;4.38;1.80;;;11.90;99.90;;;;;;5010601;28;20464;-69
2023/06/05 05:55:59;;;;;;;4.63;2.15;;;11.90;99.90;;;;;;5002642;28;20038;-70
2023/06/05 05:58:25;;;;;;;4.20;1.80;;;11.90;99.90;;;;;;5016363;28;20041;-70
2023/06/05 06:00:52;;;;;;;6.50;1.88;;;12.00;99.90;;;;;;4998195;28;20564;-70
2023/06/05 06:03:19;;;;;;;5.05;2.05;;;12.00;99.90;;;;;;5019099;28;20119;-70
2023/06/05 06:05:44;;;;;;;5.47;2.10;;;12.00;99.90;;;;;;5024330;28;20041;-69
2023/06/05 06:08:11;;;;;;;4.95;2.25;;;12.10;99.90;;;;;;5023669;28;20049;-70
2023/06/05 06:10:37;;;;;;;4.88;2.20;;;12.10;99.90;;;;;;5018750;28;20140;-70
2023/06/05 06:13:04;;;;;;;4.13;2.00;;;12.10;99.90;;;;;;5018081;28;20053;-69
2023/06/05 06:15:31;;;;;;;6.28;2.40;;;12.10;99.90;;;;;;5013981;28;20048;-69
2023/06/05 06:17:57;;;;;;;4.38;1.83;;;12.10;99.90;;;;;;5022238;28;20135;-70
2023/06/05 06:20:23;;;;;;;4.50;2.10;;;12.10;99.90;;;;;;5024154;28;20095;-70
2023/06/05 06:22:49;;;;;;;6.40;2.58;;;12.20;99.90;;;;;;5025886;28;20518;-70
2023/06/05 06:25:15;;;;;;;4.78;2.15;;;12.20;99.90;;;;;;5023876;28;20045;-70
2023/06/05 06:27:43;;;;;;;4.22;2.20;;;12.20;99.90;;;;;;5015391;28;20041;-70
2023/06/05 06:30:10;;;;;;;4.82;2.50;;;12.20;99.90;;;;;;5016280;28;20702;-70
2023/06/05 06:32:35;;;;;;;5.22;2.33;;;12.20;99.90;;;;;;5016069;28;20553;-70
2023/06/05 06:35:01;;;;;;;5.30;2.40;;;12.30;99.90;;;;;;5017190;28;20135;-70
2023/06/05 06:37:28;;;;;;;5.85;2.40;;;12.30;99.90;;;;;;5020082;28;20037;-70
2023/06/05 06:39:54;;;;;;;5.93;2.30;;;12.30;99.90;;;;;;5018220;28;20522;-69
2023/06/05 06:42:20;;;;;;;5.43;2.45;;;12.40;99.90;;;;;;5037278;28;20038;-70
2023/06/05 06:44:45;;;;;;;8.90;2.40;;;12.40;99.90;;;;;;5025055;28;20124;-70
2023/06/05 06:47:11;;;;;;;7.60;2.47;;;12.50;99.90;;;;;;5015679;28;20112;-71
2023/06/05 06:49:38;;;;;;;5.28;2.30;;;12.50;99.90;;;;;;5022015;28;20045;-70
2023/06/05 06:52:03;;;;;;;5.63;2.25;;;12.60;99.90;;;;;;5022553;28;20119;-68
2023/06/05 06:54:29;;;;;;;6.15;2.15;;;12.60;99.90;;;;;;5015660;28;20038;-70
2023/06/05 06:56:56;;;;;;;6.13;2.70;;;12.70;99.90;;;;;;5021803;28;20131;-70
2023/06/05 06:59:22;;;;;;;7.28;2.88;;;12.70;99.90;;;;;;5020650;28;20076;-70
2023/06/05 07:02:18;;;;;;;9.40;3.00;;;12.80;99.90;;;;;;5003039;28;20506;-70
2023/06/05 07:04:44;;;;;;;8.45;2.70;;;12.90;99.90;;;;;;5018429;28;20417;-71
2023/06/05 07:07:12;;;;;;;5.75;2.47;;;13.00;99.90;;;;;;5003709;28;20132;-70
2023/06/05 07:09:38;;;;;;;5.43;2.30;;;13.10;99.90;;;;;;5023477;28;20401;-70
2023/06/05 07:12:05;;;;;;;6.07;2.67;;;13.20;99.90;;;;;;5018063;28;20053;-70
2023/06/05 07:14:33;;;;;;;5.75;2.30;;;13.30;99.90;;;;;;5004578;28;20034;-70
2023/06/05 07:17:00;;;;;;;7.43;2.42;;;13.40;99.90;;;;;;5007029;28;20038;-70
2023/06/05 07:19:30;;;;;;;9.15;3.38;;;13.40;99.90;;;;;;5004324;28;20095;-71
2023/06/05 07:21:57;;;;;;;5.82;2.60;;;13.50;99.90;;;;;;5019657;28;20110;-70
2023/06/05 07:24:24;;;;;;;7.03;2.65;;;13.60;99.90;;;;;;5019588;28;20053;-71
2023/06/05 07:26:55;;;;;;;5.28;2.47;;;13.70;99.90;;;;;;5013482;28;20116;-70
2023/06/05 07:29:24;;;;;;;5.95;2.95;;;13.80;99.90;;;;;;5022761;28;20057;-70
2023/06/05 07:31:51;;;;;;;7.57;2.65;;;13.80;99.90;;;;;;5016886;28;20050;-70
2023/06/05 07:34:18;;;;;;;6.18;2.47;;;13.80;99.90;;;;;;5018956;28;20049;-70
2023/06/05 07:36:45;;;;;;;5.95;2.40;;;13.90;99.90;;;;;;5025303;28;20049;-71
2023/06/05 07:39:11;;;;;;;5.40;2.40;;;13.90;99.90;;;;;;5018471;28;20068;-70
2023/06/05 07:41:39;;;;;;;5.85;2.33;;;14.00;99.90;;;;;;5032685;28;20061;-70
2023/06/05 07:44:09;;;;;;;5.65;2.65;;;14.00;99.90;;;;;;5007954;28;20057;-71
2023/06/05 07:46:35;;;;;;;7.72;2.78;;;14.10;99.90;;;;;;5013988;28;20406;-71
2023/06/05 07:49:01;;;;;;;5.95;2.58;;;14.30;99.90;;;;;;5021558;28;20053;-71
2023/06/05 07:51:26;;;;;;;6.03;2.50;;;14.40;99.90;;;;;;5009663;28;20042;-70
2023/06/05 07:53:52;;;;;;;8.00;3.13;;;14.40;99.90;;;;;;5018027;28;20448;-70
2023/06/05 07:56:18;;;;;;;6.90;2.92;;;14.50;99.90;;;;;;5020963;28;20487;-70
2023/06/05 07:58:44;;;;;;;8.00;3.08;;;14.50;99.90;;;;;;5016649;28;20045;-70
2023/06/05 08:01:11;;;;;;;6.90;2.53;;;14.60;99.90;;;;;;5027302;28;20041;-70
2023/06/05 08:03:37;;;;;;;6.60;2.70;;;14.70;99.90;;;;;;5017517;28;20405;-70
2023/06/05 08:06:03;;;;;;;6.65;2.40;;;14.80;99.90;;;;;;5015430;28;20037;-71
2023/06/05 08:08:29;;;;;;;6.05;2.60;;;14.80;99.90;;;;;;5020231;28;20041;-70
2023/06/05 08:10:55;;;;;;;5.25;2.20;;;14.90;99.90;;;;;;5021706;28;20418;-70
2023/06/05 08:13:21;;;;;;;5.25;2.47;;;14.90;99.90;;;;;;5014683;28;20045;-71
2023/06/05 08:15:47;;;;;;;6.80;3.38;;;14.80;99.90;;;;;;5017927;28;20056;-71
2023/06/05 08:18:15;;;;;;;6.05;2.35;;;14.90;99.90;;;;;;5014604;28;20563;-70
2023/06/05 08:20:40;;;;;;;4.90;2.55;;;15.00;99.90;;;;;;5011643;28;20042;-70
2023/06/05 08:23:06;;;;;;;6.95;2.83;;;15.10;99.90;;;;;;5016878;28;20482;-71
2023/06/05 08:25:32;;;;;;;8.57;2.45;;;15.20;99.90;;;;;;5014415;28;20446;-71
2023/06/05 08:27:58;;;;;;;5.65;2.53;;;15.20;99.90;;;;;;5018232;28;20049;-71
2023/06/05 08:30:23;;;;;;;4.72;2.60;;;15.20;99.90;;;;;;5018200;28;20042;-71
2023/06/05 08:32:49;;;;;;;4.25;2.20;;;15.20;99.90;;;;;;5016044;28;20041;-70
2023/06/05 08:35:15;;;;;;;5.07;2.40;;;15.30;99.90;;;;;;5020083;28;20045;-71
2023/06/05 08:37:41;;;;;;;5.35;2.10;;;15.40;99.90;;;;;;5023774;28;20069;-70
2023/06/05 08:40:10;;;;;;;7.57;2.72;;;15.50;99.90;;;;;;5019860;28;20046;-70
2023/06/05 08:42:37;;;;;;;5.68;2.35;;;15.50;99.90;;;;;;5012087;28;20167;-70
2023/06/05 08:45:08;;;;;;;7.15;2.67;;;15.50;99.90;;;;;;5030128;28;20437;-73
2023/06/05 08:47:41;;;;;;;7.15;2.42;;;15.50;99.90;;;;;;5003278;28;20782;-75
2023/06/05 08:50:08;;;;;;;4.95;2.28;;;15.50;99.90;;;;;;5012789;28;20496;-75
2023/06/05 08:52:37;;;;;;;4.38;2.20;;;15.50;99.90;;;;;;5016661;28;20862;-74
2023/06/05 08:55:07;;;;;;;5.97;2.40;;;15.50;99.90;;;;;;5020269;28;20084;-75
2023/06/05 08:57:39;;;;;;;5.80;2.60;;;15.50;99.90;;;;;;4997859;28;20576;-75
2023/06/05 09:00:12;;;;;;;4.82;2.10;;;15.50;99.90;;;;;;5012586;28;20033;-73
2023/06/05 09:02:46;;;;;;;6.63;2.40;;;15.50;99.90;;;;;;5003279;28;20049;-74
2023/06/05 09:05:12;;;;;;;6.03;2.30;;;15.60;99.90;;;;;;5016710;28;20050;-73
2023/06/05 09:07:38;;;;;;;6.50;2.65;;;15.70;99.90;;;;;;5001138;28;20045;-74
2023/06/05 09:10:05;;;;;;;5.72;2.72;;;15.70;99.90;;;;;;5016661;28;20049;-73
2023/06/05 09:12:32;;;;;;;5.72;2.67;;;15.80;99.90;;;;;;5017212;28;20051;-74
2023/06/05 09:14:57;;;;;;;6.22;2.63;;;16.00;99.90;;;;;;5013522;28;20045;-74
2023/06/05 09:17:23;;;;;;;6.97;2.60;;;16.00;99.90;;;;;;5024750;28;20429;-73
2023/06/05 09:19:50;;;;;;;5.53;2.70;;;16.10;99.90;;;;;;5013238;28;20468;-73
2023/06/05 09:22:16;;;;;;;5.43;2.88;;;16.10;99.90;;;;;;5020907;28;20048;-73
2023/06/05 09:24:43;;;;;;;5.50;2.55;;;16.20;99.90;;;;;;5005220;28;20140;-74
2023/06/05 09:27:16;;;;;;;7.07;2.38;;;16.20;99.90;;;;;;5009274;28;20052;-75
2023/06/05 09:29:44;;;;;;;6.10;2.78;;;16.20;99.90;;;;;;5010474;28;20089;-74
2023/06/05 09:32:18;;;;;;;5.82;2.70;;;16.20;99.90;;;;;;5027684;28;20077;-74
2023/06/05 09:34:46;;;;;;;6.72;3.03;;;16.30;99.90;;;;;;5023832;28;20050;-73
2023/06/05 09:37:12;;;;;;;9.43;3.13;;;16.30;99.90;;;;;;5020255;28;20679;-74
2023/06/05 09:39:40;;;;;;;14.75;3.78;;;16.40;99.90;;;;;;5022527;28;20052;-73
2023/06/05 09:42:06;;;;;;;5.93;2.85;;;16.40;99.90;;;;;;5027410;28;20053;-73
2023/06/05 09:44:34;;;;;;;5.32;2.67;;;16.40;99.90;;;;;;5026499;28;20073;-73
2023/06/05 09:47:01;;;;;;;4.97;2.60;;;16.50;99.90;;;;;;5028184;28;20125;-76
2023/06/05 09:49:41;;;;;;;7.03;2.92;;;16.50;99.90;;;;;;5022543;28;20119;-76
2023/06/05 09:52:12;;;;;;;5.88;2.45;;;16.60;99.90;;;;;;4997126;28;20746;-74
2023/06/05 09:54:41;;;;;;;5.85;2.75;;;16.60;99.90;;;;;;5024045;28;20052;-73
2023/06/05 09:57:11;;;;;;;7.85;3.00;;;16.60;99.90;;;;;;5023401;28;20493;-74
2023/06/05 09:59:54;;;;;;;7.15;2.90;;;16.60;99.90;;;;;;5020054;28;20045;-75
2023/06/05 10:02:35;;;;;;;7.35;2.90;;;16.70;99.90;;;;;;5022252;28;20107;-76
2023/06/05 10:05:04;;;;;;;7.28;2.90;;;16.80;99.90;;;;;;5024086;28;20106;-77
2023/06/05 10:07:35;;;;;;;5.43;2.55;;;16.80;99.90;;;;;;5020334;28;20104;-75
2023/06/05 10:10:05;;;;;;;6.60;3.13;;;16.90;99.90;;;;;;5044048;28;20075;-77
2023/06/05 10:12:34;;;;;;;5.20;2.33;;;16.90;99.90;;;;;;5027535;28;20045;-76
2023/06/05 10:15:01;;;;;;;5.35;2.50;;;16.90;99.90;;;;;;5024776;28;20304;-77
2023/06/05 10:17:28;;;;;;;6.95;2.63;;;17.00;99.90;;;;;;5026853;28;20080;-77
2023/06/05 10:19:54;;;;;;;5.07;2.33;;;17.00;99.90;;;;;;5020953;28;20037;-75
2023/06/05 10:22:20;;;;;;;4.35;2.17;;;17.20;99.90;;;;;;5027287;28;20568;-76
2023/06/05 10:24:56;;;;;;;7.15;2.80;;;17.20;99.90;;;;;;5011996;28;20064;-74
2023/06/05 10:27:40;;;;;;;6.80;2.92;;;17.20;99.90;;;;;;5015609;28;20045;-74
2023/06/05 10:30:25;;;;;;;4.88;2.28;;;17.20;99.90;;;;;;5017318;28;20107;-75
2023/06/05 10:33:30;;;;;;;6.18;2.50;;;17.10;99.90;;;;;;5019280;28;20072;-75
2023/06/05 10:35:55;;;;;;;5.38;2.35;;;17.10;99.90;;;;;;5001294;28;20053;-73
2023/06/05 10:38:25;;;;;;;5.35;2.60;;;17.00;99.90;;;;;;5020008;28;20045;-74
2023/06/05 10:40:57;;;;;;;6.20;2.50;;;17.00;99.90;;;;;;5017244;28;20391;-74
2023/06/05 10:43:35;;;;;;;4.60;2.47;;;16.90;99.90;;;;;;5016853;28;20413;-74
2023/06/05 10:46:30;;;;;;;7.95;2.33;;;17.00;99.90;;;;;;5007934;28;21425;-73
2023/06/05 10:49:15;;;;;;;5.40;2.53;;;17.00;99.90;;;;;;5008813;28;20061;-74
2023/06/05 10:51:53;;;;;;;5.88;2.67;;;16.80;99.90;;;;;;5013491;28;20038;-74
2023/06/05 10:54:22;;;;;;;5.22;2.33;;;16.80;99.90;;;;;;5030694;28;20059;-73
2023/06/05 10:56:55;;;;;;;5.07;2.03;;;16.90;99.90;;;;;;5003047;28;20057;-74
2023/06/05 10:59:25;;;;;;;5.20;2.15;;;16.90;99.90;;;;;;5013149;28;20187;-73
2023/06/05 11:02:19;;;;;;;6.97;2.60;;;17.00;99.90;;;;;;5020367;28;20045;-73
2023/06/05 11:04:47;;;;;;;6.82;2.50;;;17.10;99.90;;;;;;5019813;28;20088;-75
2023/06/05 11:07:20;;;;;;;3.97;2.30;;;17.20;99.90;;;;;;5021692;28;20095;-74
2023/06/05 11:10:09;;;;;;;4.25;2.10;;;17.20;99.90;;;;;;5020368;28;20764;-74
2023/06/05 11:12:35;;;;;;;4.72;2.28;;;17.20;99.90;;;;;;5002791;28;20549;-74
2023/06/05 11:15:01;;;;;;;9.75;3.58;;;17.30;99.90;;;;;;5017978;28;20042;-74
2023/06/05 11:17:32;;;;;;;5.28;2.33;;;17.30;99.90;;;;;;5020730;28;20038;-75
2023/06/05 11:19:58;;;;;;;6.13;2.50;;;17.30;99.90;;;;;;5020304;28;20089;-74
2023/06/05 11:22:26;;;;;;;6.35;2.50;;;17.40;99.90;;;;;;5020974;28;20129;-75
2023/06/05 11:25:26;;;;;;;5.20;2.47;;;17.40;99.90;;;;;;5021949;28;20056;-76
2023/06/05 11:28:05;;;;;;;3.92;1.98;;;17.40;99.90;;;;;;5015575;28;20144;-75
2023/06/05 11:30:38;;;;;;;6.00;2.08;;;17.40;99.90;;;;;;5014711;28;20050;-75
2023/06/05 11:33:12;;;;;;;4.30;2.22;;;17.50;99.90;;;;;;5020881;28;20045;-75
2023/06/05 11:35:41;;;;;;;5.03;2.33;;;17.60;99.90;;;;;;5018371;28;20041;-75
2023/06/05 11:38:11;;;;;;;7.32;2.35;;;17.60;99.90;;;;;;5010740;28;20073;-75
2023/06/05 11:40:38;;;;;;;5.22;2.40;;;17.60;99.90;;;;;;5018243;28;20053;-77
2023/06/05 11:43:06;;;;;;;4.50;2.08;;;17.60;99.90;;;;;;5002677;28;20061;-75
2023/06/05 11:45:36;;;;;;;5.25;2.70;;;17.60;99.90;;;;;;5018487;28;20045;-74
2023/06/05 11:48:10;;;;;;;4.77;2.53;;;17.60;99.90;;;;;;5014142;28;20103;-73
2023/06/05 11:50:37;;;;;;;5.30;2.40;;;17.50;99.90;;;;;;5012916;28;20073;-73
2023/06/05 11:53:07;;;;;;;6.45;3.20;;;17.60;99.90;;;;;;5023695;28;20056;-74
2023/06/05 11:58:24;;;;;;;5.50;2.58;;;17.60;99.90;;;;;;5018286;28;20045;-74
2023/06/05 12:00:51;;;;;;;6.43;2.72;;;17.60;99.90;;;;;;5020119;28;20583;-75
2023/06/05 12:03:20;;;;;;;5.97;2.92;;;17.70;99.90;;;;;;5016701;28;20048;-75
2023/06/05 12:05:49;;;;;;;8.48;2.85;;;17.80;99.90;;;;;;5014773;28;20041;-75
2023/06/05 12:08:22;;;;;;;5.63;2.60;;;17.90;99.90;;;;;;5023111;28;20046;-74
2023/06/05 12:10:48;;;;;;;6.32;2.22;;;17.80;99.90;;;;;;5000099;28;20042;-72
2023/06/05 12:13:15;;;;;;;4.28;2.30;;;17.70;99.90;;;;;;5017312;28;20086;-74
2023/06/05 12:15:40;;;;;;;4.63;2.25;;;17.60;99.90;;;;;;5019329;28;20530;-73
2023/06/05 12:18:06;;;;;;;7.25;2.50;;;17.60;99.90;;;;;;5032810;28;20049;-73
2023/06/05 12:20:41;;;;;;;4.10;2.17;;;17.60;99.90;;;;;;5008483;28;20034;-72
2023/06/05 12:23:07;;;;;;;5.78;2.47;;;17.60;99.90;;;;;;4996265;28;20057;-76
2023/06/05 12:25:33;;;;;;;4.30;2.00;;;17.60;99.90;;;;;;5008803;28;20033;-74
2023/06/05 12:27:59;;;;;;;5.25;2.63;;;17.60;99.90;;;;;;5009514;28;20050;-74
2023/06/05 12:30:25;;;;;;;6.68;2.53;;;17.50;99.90;;;;;;5005735;28;20052;-75
2023/06/05 12:32:51;;;;;;;4.88;2.40;;;17.50;99.90;;;;;;5008984;28;20136;-74
2023/06/05 12:35:23;;;;;;;4.95;2.17;;;17.50;99.90;;;;;;4990128;28;20056;-76
2023/06/05 12:37:50;;;;;;;4.95;2.40;;;17.50;99.90;;;;;;5001304;28;20084;-74
2023/06/05 12:40:23;;;;;;;7.07;2.60;;;17.50;99.90;;;;;;4999459;28;20050;-74
2023/06/05 12:42:49;;;;;;;5.57;2.55;;;17.60;99.90;;;;;;4984897;28;20414;-74
2023/06/05 12:45:16;;;;;;;5.22;2.22;;;17.60;99.90;;;;;;4993975;28;20049;-75
2023/06/05 12:47:43;;;;;;;6.20;2.30;;;17.70;99.90;;;;;;4996778;28;20208;-75
2023/06/05 12:50:12;;;;;;;4.68;2.30;;;17.60;99.90;;;;;;4997093;28;20168;-74
2023/06/05 12:52:42;;;;;;;7.93;2.60;;;17.70;99.90;;;;;;4999717;28;20051;-74
2023/06/05 12:55:09;;;;;;;4.38;2.20;;;17.70;99.90;;;;;;5001788;28;20608;-74